createdAt,value
2023-03-28T00:00:20.897Z,0.00
2023-03-28T00:01:20.925Z,0.00
2023-03-28T00:02:20.866Z,0.00
2023-03-28T00:03:20.922Z,0.00
2023-03-28T00:04:20.903Z,0.00
2023-03-28T00:05:20.827Z,0.00
2023-03-28T00:06:20.898Z,0.00
2023-03-28T00:07:20.854Z,0.00
2023-03-28T00:08:20.796Z,0.00
2023-03-28T00:09:20.801Z,0.00
2023-03-28T00:10:20.769Z,0.00
2023-03-28T00:11:20.858Z,0.00
2023-03-28T00:12:20.757Z,0.00
2023-03-28T00:13:20.747Z,0.00
2023-03-28T00:14:20.763Z,0.00
2023-03-28T00:15:20.721Z,0.00
2023-03-28T00:16:20.745Z,0.00
2023-03-28T00:17:20.717Z,0.00
2023-03-28T00:18:20.676Z,0.00
2023-03-28T00:19:20.728Z,0.00
2023-03-28T00:20:20.662Z,0.00
2023-03-28T00:21:20.668Z,0.00
2023-03-28T00:22:20.680Z,0.00
2023-03-28T00:23:20.626Z,0.00
2023-03-28T00:24:20.608Z,0.00
2023-03-28T00:25:20.603Z,0.00
2023-03-28T00:26:20.601Z,0.00
2023-03-28T00:27:20.597Z,0.00
2023-03-28T00:28:20.574Z,0.00
2023-03-28T00:29:20.558Z,0.00
2023-03-28T00:30:20.559Z,0.00
2023-03-28T00:31:20.579Z,0.00
2023-03-28T00:32:20.521Z,0.00
2023-03-28T00:33:20.523Z,0.00
2023-03-28T00:34:20.878Z,0.00
2023-03-28T00:35:20.542Z,0.00
2023-03-28T00:36:20.483Z,0.00
2023-03-28T00:37:20.466Z,0.00
2023-03-28T00:38:20.463Z,0.00
2023-03-28T00:39:20.469Z,0.00
2023-03-28T00:40:20.437Z,0.00
2023-03-28T00:41:20.429Z,0.00
2023-03-28T00:42:20.428Z,0.00
2023-03-28T00:43:27.920Z,0.00
2023-03-28T00:44:20.385Z,0.00
2023-03-28T00:45:20.378Z,0.00
2023-03-28T00:46:20.395Z,0.00
2023-03-28T00:47:20.369Z,0.00
2023-03-28T00:48:20.341Z,0.00
2023-03-28T00:49:20.334Z,0.00
2023-03-28T00:50:20.399Z,0.00
2023-03-28T00:51:20.348Z,0.00
2023-03-28T00:52:20.314Z,0.00
2023-03-28T00:53:20.294Z,0.00
2023-03-28T00:54:20.339Z,0.00
2023-03-28T00:55:20.273Z,0.00
2023-03-28T00:56:20.282Z,0.00
2023-03-28T00:57:20.268Z,0.00
2023-03-28T00:58:20.233Z,0.00
2023-03-28T00:59:20.232Z,0.00
2023-03-28T01:00:20.221Z,0.00
2023-03-28T01:01:20.337Z,0.00
2023-03-28T01:02:20.286Z,0.00
2023-03-28T01:03:20.317Z,0.00
2023-03-28T01:04:20.179Z,0.00
2023-03-28T01:05:20.160Z,0.00
2023-03-28T01:06:20.187Z,0.00
2023-03-28T01:07:20.161Z,0.00
2023-03-28T01:08:20.139Z,0.00
2023-03-28T01:09:20.110Z,0.00
2023-03-28T01:10:20.109Z,0.00
2023-03-28T01:11:20.100Z,0.00
2023-03-28T01:12:20.115Z,0.00
2023-03-28T01:13:20.098Z,0.00
2023-03-28T01:14:20.087Z,0.00
2023-03-28T01:15:20.058Z,0.00
2023-03-28T01:16:20.084Z,0.00
2023-03-28T01:17:20.027Z,0.00
2023-03-28T01:18:20.029Z,0.00
2023-03-28T01:19:20.049Z,0.00
2023-03-28T01:20:19.986Z,0.00
2023-03-28T01:21:19.979Z,0.00
2023-03-28T01:22:19.969Z,0.00
2023-03-28T01:23:19.988Z,0.00
2023-03-28T01:24:19.950Z,0.00
2023-03-28T01:25:19.963Z,0.00
2023-03-28T01:26:19.928Z,0.00
2023-03-28T01:27:19.918Z,0.00
2023-03-28T01:28:19.917Z,0.00
2023-03-28T01:29:19.905Z,0.00
2023-03-28T01:30:19.875Z,0.00
2023-03-28T01:31:19.944Z,0.00
2023-03-28T01:32:19.857Z,0.00
2023-03-28T01:33:19.841Z,0.00
2023-03-28T01:34:19.832Z,0.00
2023-03-28T01:35:19.847Z,0.00
2023-03-28T01:36:34.419Z,0.00
2023-03-28T01:37:19.827Z,0.00
2023-03-28T01:38:19.792Z,0.00
2023-03-28T01:39:19.808Z,0.00
2023-03-28T01:40:19.777Z,0.00
2023-03-28T01:41:19.779Z,0.00
2023-03-28T01:42:19.740Z,0.00
2023-03-28T01:43:19.737Z,0.00
2023-03-28T01:44:19.737Z,0.00
2023-03-28T01:45:19.705Z,0.00
2023-03-28T01:46:19.724Z,0.00
2023-03-28T01:47:19.690Z,0.00
2023-03-28T01:48:19.678Z,0.00
2023-03-28T01:49:19.668Z,0.00
2023-03-28T01:50:19.649Z,0.00
2023-03-28T01:51:19.659Z,0.00
2023-03-28T01:52:19.622Z,0.00
2023-03-28T01:53:19.624Z,0.00
2023-03-28T01:54:19.600Z,0.00
2023-03-28T01:55:19.615Z,0.00
2023-03-28T01:56:20.399Z,0.00
2023-03-28T01:57:19.788Z,0.00
2023-03-28T01:58:19.585Z,0.00
2023-03-28T01:59:19.546Z,0.00
2023-03-28T02:00:19.558Z,0.00
2023-03-28T02:01:19.538Z,0.00
2023-03-28T02:02:19.961Z,0.00
2023-03-28T02:03:20.395Z,0.00
2023-03-28T02:04:20.586Z,0.00
2023-03-28T02:05:19.502Z,0.00
2023-03-28T02:06:19.489Z,0.00
2023-03-28T02:07:19.892Z,0.00
2023-03-28T02:08:19.536Z,0.00
2023-03-28T02:09:19.532Z,0.00
2023-03-28T02:10:19.502Z,0.00
2023-03-28T02:11:19.451Z,0.00
2023-03-28T02:12:19.405Z,0.00
2023-03-28T02:13:19.397Z,0.00
2023-03-28T02:14:19.379Z,0.00
2023-03-28T02:15:19.395Z,0.00
2023-03-28T02:16:19.391Z,0.00
2023-03-28T02:17:19.366Z,0.00
2023-03-28T02:18:19.333Z,0.00
2023-03-28T02:19:19.319Z,0.00
2023-03-28T02:20:19.327Z,0.00
2023-03-28T02:21:19.317Z,0.00
2023-03-28T02:22:19.291Z,0.00
2023-03-28T02:23:19.286Z,0.00
2023-03-28T02:24:19.284Z,0.00
2023-03-28T02:25:19.260Z,0.00
2023-03-28T02:26:19.249Z,0.00
2023-03-28T02:27:19.266Z,0.00
2023-03-28T02:28:19.235Z,0.00
2023-03-28T02:29:19.228Z,0.00
2023-03-28T02:30:19.208Z,0.00
2023-03-28T02:31:19.245Z,0.00
2023-03-28T02:32:19.176Z,0.00
2023-03-28T02:33:19.163Z,0.00
2023-03-28T02:34:19.166Z,0.00
2023-03-28T02:35:19.156Z,0.00
2023-03-28T02:36:19.144Z,0.00
2023-03-28T02:37:19.123Z,0.00
2023-03-28T02:38:19.115Z,0.00
2023-03-28T02:39:19.096Z,0.00
2023-03-28T02:40:19.099Z,0.00
2023-03-28T02:41:19.075Z,0.00
2023-03-28T02:42:19.080Z,0.00
2023-03-28T02:43:19.077Z,0.00
2023-03-28T02:44:27.059Z,0.00
2023-03-28T02:45:19.050Z,0.00
2023-03-28T02:46:19.191Z,0.00
2023-03-28T02:47:19.006Z,0.00
2023-03-28T02:48:19.012Z,0.00
2023-03-28T02:49:19.003Z,0.00
2023-03-28T02:50:19.010Z,0.00
2023-03-28T02:51:18.980Z,0.00
2023-03-28T02:52:18.965Z,0.00
2023-03-28T02:53:18.941Z,0.00
2023-03-28T02:54:18.937Z,0.00
2023-03-28T02:55:18.965Z,0.00
2023-03-28T02:56:18.945Z,0.00
2023-03-28T02:57:18.950Z,0.00
2023-03-28T02:58:18.906Z,0.00
2023-03-28T02:59:18.900Z,0.00
2023-03-28T03:00:18.882Z,0.00
2023-03-28T03:01:18.896Z,0.00
2023-03-28T03:02:18.858Z,0.00
2023-03-28T03:03:18.927Z,0.00
2023-03-28T03:04:18.858Z,0.00
2023-03-28T03:05:18.820Z,0.00
2023-03-28T03:06:18.825Z,0.00
2023-03-28T03:07:18.810Z,0.00
2023-03-28T03:08:18.777Z,0.00
2023-03-28T03:09:18.771Z,0.00
2023-03-28T03:10:18.763Z,0.00
2023-03-28T03:11:18.795Z,0.00
2023-03-28T03:12:18.751Z,0.00
2023-03-28T03:13:18.742Z,0.00
2023-03-28T03:14:18.718Z,0.00
2023-03-28T03:15:18.722Z,0.00
2023-03-28T03:16:18.782Z,0.00
2023-03-28T03:17:18.682Z,0.00
2023-03-28T03:18:18.688Z,0.00
2023-03-28T03:19:18.662Z,0.00
2023-03-28T03:20:18.654Z,0.00
2023-03-28T03:21:18.638Z,0.00
2023-03-28T03:22:21.277Z,0.00
2023-03-28T03:23:18.608Z,0.00
2023-03-28T03:24:18.639Z,0.00
2023-03-28T03:25:18.607Z,0.00
2023-03-28T03:26:18.606Z,0.00
2023-03-28T03:27:18.566Z,0.00
2023-03-28T03:28:18.583Z,0.00
2023-03-28T03:29:18.543Z,0.00
2023-03-28T03:30:18.536Z,0.00
2023-03-28T03:31:18.579Z,0.00
2023-03-28T03:32:18.940Z,0.00
2023-03-28T03:33:18.498Z,0.00
2023-03-28T03:34:18.501Z,0.00
2023-03-28T03:35:18.542Z,0.00
2023-03-28T03:36:18.467Z,0.00
2023-03-28T03:37:18.471Z,0.00
2023-03-28T03:38:18.449Z,0.00
2023-03-28T03:39:18.431Z,0.00
2023-03-28T03:40:18.445Z,0.00
2023-03-28T03:41:18.425Z,0.00
2023-03-28T03:42:18.448Z,0.00
2023-03-28T03:43:18.418Z,0.00
2023-03-28T03:44:18.380Z,0.00
2023-03-28T03:45:18.380Z,0.00
2023-03-28T03:46:18.385Z,0.00
2023-03-28T03:47:18.367Z,0.00
2023-03-28T03:48:18.340Z,0.00
2023-03-28T03:49:18.334Z,0.00
2023-03-28T03:50:18.342Z,0.00
2023-03-28T03:51:18.311Z,0.00
2023-03-28T03:52:18.305Z,0.00
2023-03-28T03:53:18.293Z,0.00
2023-03-28T03:54:18.301Z,0.00
2023-03-28T03:55:18.265Z,0.00
2023-03-28T03:56:18.246Z,0.00
2023-03-28T03:57:18.262Z,0.00
2023-03-28T03:58:18.238Z,0.00
2023-03-28T03:59:18.226Z,0.00
2023-03-28T04:00:18.205Z,0.00
2023-03-28T04:01:18.188Z,0.00
2023-03-28T04:02:18.209Z,0.00
2023-03-28T04:03:24.259Z,0.00
2023-03-28T04:04:19.210Z,0.00
2023-03-28T04:05:18.178Z,0.00
2023-03-28T04:06:18.139Z,0.00
2023-03-28T04:07:18.126Z,0.00
2023-03-28T04:08:18.152Z,0.00
2023-03-28T04:09:18.118Z,0.00
2023-03-28T04:10:18.122Z,0.00
2023-03-28T04:11:18.088Z,0.00
2023-03-28T04:12:18.095Z,0.00
2023-03-28T04:13:18.074Z,0.00
2023-03-28T04:14:18.073Z,0.00
2023-03-28T04:15:18.038Z,0.00
2023-03-28T04:16:18.087Z,0.00
2023-03-28T04:17:18.035Z,0.00
2023-03-28T04:18:18.075Z,0.00
2023-03-28T04:19:18.068Z,0.00
2023-03-28T04:20:17.992Z,0.00
2023-03-28T04:21:17.975Z,0.00
2023-03-28T04:22:17.967Z,0.00
2023-03-28T04:23:17.952Z,0.00
2023-03-28T04:24:17.976Z,0.00
2023-03-28T04:25:17.944Z,0.00
2023-03-28T04:26:17.925Z,0.00
2023-03-28T04:27:17.952Z,0.00
2023-03-28T04:28:17.900Z,0.00
2023-03-28T04:29:17.890Z,0.00
2023-03-28T04:30:18.193Z,0.00
2023-03-28T04:31:17.909Z,0.00
2023-03-28T04:32:17.878Z,0.00
2023-03-28T04:33:17.871Z,0.00
2023-03-28T04:34:17.864Z,0.00
2023-03-28T04:35:17.866Z,0.00
2023-03-28T04:36:17.823Z,4.00
2023-03-28T04:37:17.826Z,4.00
2023-03-28T04:38:20.431Z,0.00
2023-03-28T04:39:17.804Z,4.00
2023-03-28T04:40:17.916Z,4.00
2023-03-28T04:41:17.786Z,4.00
2023-03-28T04:42:17.768Z,4.00
2023-03-28T04:43:17.760Z,4.00
2023-03-28T04:44:17.746Z,4.00
2023-03-28T04:45:25.608Z,8.00
2023-03-28T04:46:17.779Z,8.00
2023-03-28T04:47:17.707Z,8.00
2023-03-28T04:48:17.702Z,12.00
2023-03-28T04:49:17.690Z,12.00
2023-03-28T04:50:17.682Z,12.00
2023-03-28T04:51:17.692Z,20.00
2023-03-28T04:52:17.672Z,24.00
2023-03-28T04:53:17.652Z,24.00
2023-03-28T04:54:17.644Z,32.00
2023-03-28T04:55:17.649Z,36.00
2023-03-28T04:56:17.610Z,40.00
2023-03-28T04:57:17.690Z,48.00
2023-03-28T04:58:17.587Z,52.00
2023-03-28T04:59:17.588Z,64.00
2023-03-28T05:00:17.569Z,76.00
2023-03-28T05:01:17.700Z,84.00
2023-03-28T05:02:17.562Z,96.00
2023-03-28T05:03:17.576Z,108.00
2023-03-28T05:04:17.537Z,124.00
2023-03-28T05:05:17.517Z,144.00
2023-03-28T05:06:17.517Z,160.00
2023-03-28T05:07:17.540Z,180.00
2023-03-28T05:08:17.489Z,200.00
2023-03-28T05:09:17.490Z,224.00
2023-03-28T05:10:17.466Z,248.00
2023-03-28T05:11:17.460Z,276.00
2023-03-28T05:12:17.430Z,308.00
2023-03-28T05:13:17.444Z,332.00
2023-03-28T05:14:17.431Z,364.00
2023-03-28T05:15:21.948Z,396.00
2023-03-28T05:16:17.416Z,432.00
2023-03-28T05:17:17.373Z,464.00
2023-03-28T05:18:17.407Z,508.00
2023-03-28T05:19:17.786Z,544.00
2023-03-28T05:20:17.370Z,584.00
2023-03-28T05:21:17.340Z,628.00
2023-03-28T05:22:17.329Z,664.00
2023-03-28T05:23:17.341Z,712.00
2023-03-28T05:24:17.308Z,756.00
2023-03-28T05:25:17.310Z,800.00
2023-03-28T05:26:17.281Z,844.00
2023-03-28T05:27:17.274Z,896.00
2023-03-28T05:28:17.257Z,940.00
2023-03-28T05:29:17.252Z,988.00
2023-03-28T05:30:17.275Z,1036.00
2023-03-28T05:31:17.380Z,1084.00
2023-03-28T05:32:17.228Z,1140.00
2023-03-28T05:33:17.221Z,1204.00
2023-03-28T05:34:17.477Z,1272.00
2023-03-28T05:35:17.180Z,1344.00
2023-03-28T05:36:17.233Z,1424.00
2023-03-28T05:37:17.191Z,1504.00
2023-03-28T05:38:17.160Z,1592.00
2023-03-28T05:39:17.164Z,1680.00
2023-03-28T05:40:17.138Z,1792.00
2023-03-28T05:41:17.127Z,1904.00
2023-03-28T05:42:17.116Z,2028.00
2023-03-28T05:43:17.110Z,2148.00
2023-03-28T05:44:18.707Z,2264.00
2023-03-28T05:45:17.090Z,2364.00
2023-03-28T05:46:17.138Z,2472.00
2023-03-28T05:47:17.056Z,2568.00
2023-03-28T05:48:17.065Z,2668.00
2023-03-28T05:49:17.035Z,2768.00
2023-03-28T05:50:17.026Z,2864.00
2023-03-28T05:51:17.058Z,2972.00
2023-03-28T05:52:17.018Z,3080.00
2023-03-28T05:53:17.016Z,3192.00
2023-03-28T05:54:16.995Z,3312.00
2023-03-28T05:55:17.098Z,3432.00
2023-03-28T05:56:16.970Z,3560.00
2023-03-28T05:57:17.233Z,3692.00
2023-03-28T05:58:16.999Z,3828.00
2023-03-28T05:59:16.966Z,3960.00
2023-03-28T06:00:16.935Z,4100.00
2023-03-28T06:01:16.906Z,4252.00
2023-03-28T06:02:16.922Z,4412.00
2023-03-28T06:03:17.719Z,4572.00
2023-03-28T06:04:16.924Z,4752.00
2023-03-28T06:05:16.889Z,4968.00
2023-03-28T06:06:16.887Z,8984.00
2023-03-28T06:07:18.565Z,15264.00
2023-03-28T06:08:16.869Z,17728.00
2023-03-28T06:09:16.824Z,18080.00
2023-03-28T06:10:16.824Z,17952.00
2023-03-28T06:11:16.877Z,18624.00
2023-03-28T06:12:16.791Z,20448.00
2023-03-28T06:13:16.771Z,22368.00
2023-03-28T06:14:16.765Z,22656.00
2023-03-28T06:15:16.766Z,22304.00
2023-03-28T06:16:16.766Z,22368.00
2023-03-28T06:17:16.794Z,25728.00
2023-03-28T06:18:16.792Z,26272.00
2023-03-28T06:19:18.676Z,24288.00
2023-03-28T06:20:16.717Z,25664.00
2023-03-28T06:21:16.689Z,25184.00
2023-03-28T06:22:16.692Z,25056.00
2023-03-28T06:23:16.685Z,30432.00
2023-03-28T06:24:16.656Z,31456.00
2023-03-28T06:25:16.640Z,28224.00
2023-03-28T06:26:16.623Z,30336.00
2023-03-28T06:27:16.648Z,32576.00
2023-03-28T06:28:16.689Z,33024.00
2023-03-28T06:29:16.622Z,32864.00
2023-03-28T06:30:16.585Z,32000.00
2023-03-28T06:31:16.622Z,30880.00
2023-03-28T06:32:16.582Z,31264.00
2023-03-28T06:33:16.582Z,35616.00
2023-03-28T06:34:16.552Z,35744.00
2023-03-28T06:35:16.543Z,33216.00
2023-03-28T06:36:16.583Z,35456.00
2023-03-28T06:37:16.508Z,36128.00
2023-03-28T06:38:16.547Z,42592.00
2023-03-28T06:39:16.486Z,41824.00
2023-03-28T06:40:16.535Z,35680.00
2023-03-28T06:41:16.502Z,37120.00
2023-03-28T06:42:16.446Z,40960.00
2023-03-28T06:43:16.459Z,40896.00
2023-03-28T06:44:16.427Z,42880.00
2023-03-28T06:45:16.423Z,38144.00
2023-03-28T06:46:24.045Z,37952.00
2023-03-28T06:47:16.400Z,47776.00
2023-03-28T06:48:16.397Z,46176.00
2023-03-28T06:49:16.381Z,41600.00
2023-03-28T06:50:16.359Z,45664.00
2023-03-28T06:51:16.352Z,45696.00
2023-03-28T06:52:16.342Z,40192.00
2023-03-28T06:53:16.720Z,39168.00
2023-03-28T06:54:16.317Z,41376.00
2023-03-28T06:55:16.309Z,43200.00
2023-03-28T06:56:16.306Z,42144.00
2023-03-28T06:57:16.321Z,41280.00
2023-03-28T06:58:16.292Z,41632.00
2023-03-28T06:59:16.290Z,38688.00
2023-03-28T07:00:16.253Z,33440.00
2023-03-28T07:01:16.273Z,32928.00
2023-03-28T07:02:16.340Z,32800.00
2023-03-28T07:03:16.458Z,27328.00
2023-03-28T07:04:16.220Z,24288.00
2023-03-28T07:05:16.235Z,25472.00
2023-03-28T07:06:16.227Z,22240.00
2023-03-28T07:07:16.190Z,18496.00
2023-03-28T07:08:16.174Z,19744.00
2023-03-28T07:09:16.181Z,20256.00
2023-03-28T07:10:16.181Z,18688.00
2023-03-28T07:11:16.151Z,17600.00
2023-03-28T07:12:16.119Z,18464.00
2023-03-28T07:13:16.147Z,17120.00
2023-03-28T07:14:16.107Z,15520.00
2023-03-28T07:15:17.750Z,16160.00
2023-03-28T07:16:16.179Z,16800.00
2023-03-28T07:17:16.077Z,16960.00
2023-03-28T07:18:16.059Z,17056.00
2023-03-28T07:19:16.061Z,17024.00
2023-03-28T07:20:16.044Z,17056.00
2023-03-28T07:21:16.064Z,17152.00
2023-03-28T07:22:16.013Z,17312.00
2023-03-28T07:23:16.032Z,17344.00
2023-03-28T07:24:16.018Z,17408.00
2023-03-28T07:25:15.992Z,17568.00
2023-03-28T07:26:15.988Z,17536.00
2023-03-28T07:27:16.862Z,17568.00
2023-03-28T07:28:15.961Z,17504.00
2023-03-28T07:29:15.943Z,17760.00
2023-03-28T07:30:16.112Z,17664.00
2023-03-28T07:31:16.738Z,17920.00
2023-03-28T07:32:15.932Z,17856.00
2023-03-28T07:33:23.444Z,17856.00
2023-03-28T07:34:16.980Z,17952.00
2023-03-28T07:35:16.057Z,18112.00
2023-03-28T07:36:15.949Z,18176.00
2023-03-28T07:37:16.461Z,18112.00
2023-03-28T07:38:15.876Z,18272.00
2023-03-28T07:39:15.891Z,18272.00
2023-03-28T07:40:15.839Z,18368.00
2023-03-28T07:41:15.830Z,18496.00
2023-03-28T07:42:15.866Z,18560.00
2023-03-28T07:43:15.812Z,18624.00
2023-03-28T07:44:16.012Z,18592.00
2023-03-28T07:45:15.769Z,18624.00
2023-03-28T07:46:15.793Z,18752.00
2023-03-28T07:47:15.777Z,18656.00
2023-03-28T07:48:15.754Z,18688.00
2023-03-28T07:49:18.966Z,18720.00
2023-03-28T07:50:16.521Z,18688.00
2023-03-28T07:51:15.748Z,18752.00
2023-03-28T07:52:15.714Z,18688.00
2023-03-28T07:53:15.725Z,18720.00
2023-03-28T07:54:15.675Z,18880.00
2023-03-28T07:55:15.711Z,18784.00
2023-03-28T07:56:15.644Z,19008.00
2023-03-28T07:57:16.578Z,19104.00
2023-03-28T07:58:15.613Z,19168.00
2023-03-28T07:59:15.675Z,19232.00
2023-03-28T08:00:15.594Z,19328.00
2023-03-28T08:01:15.622Z,19392.00
2023-03-28T08:02:15.633Z,19264.00
2023-03-28T08:03:15.677Z,19552.00
2023-03-28T08:04:15.551Z,19520.00
2023-03-28T08:05:15.626Z,19456.00
2023-03-28T08:06:29.168Z,19520.00
2023-03-28T08:07:15.554Z,19520.00
2023-03-28T08:08:15.532Z,19648.00
2023-03-28T08:09:15.532Z,19744.00
2023-03-28T08:10:15.563Z,19968.00
2023-03-28T08:11:15.484Z,19584.00
2023-03-28T08:12:15.540Z,20096.00
2023-03-28T08:13:15.582Z,19968.00
2023-03-28T08:14:15.478Z,20032.00
2023-03-28T08:15:15.451Z,20128.00
2023-03-28T08:16:15.455Z,20128.00
2023-03-28T08:17:15.431Z,20224.00
2023-03-28T08:18:15.450Z,20256.00
2023-03-28T08:19:15.410Z,20416.00
2023-03-28T08:20:15.402Z,20672.00
2023-03-28T08:21:15.395Z,20960.00
2023-03-28T08:22:15.361Z,21184.00
2023-03-28T08:23:15.451Z,21344.00
2023-03-28T08:24:22.286Z,22208.00
2023-03-28T08:25:15.325Z,23104.00
2023-03-28T08:26:15.380Z,23776.00
2023-03-28T08:27:15.612Z,24928.00
2023-03-28T08:28:15.288Z,24128.00
2023-03-28T08:29:15.300Z,18976.00
2023-03-28T08:30:15.293Z,25536.00
2023-03-28T08:31:15.371Z,25184.00
2023-03-28T08:32:15.272Z,26720.00
2023-03-28T08:33:15.340Z,27072.00
2023-03-28T08:34:15.223Z,25952.00
2023-03-28T08:35:15.272Z,25472.00
2023-03-28T08:36:15.275Z,26112.00
2023-03-28T08:37:15.209Z,28192.00
2023-03-28T08:38:15.191Z,27424.00
2023-03-28T08:39:15.229Z,23712.00
2023-03-28T08:40:15.163Z,24032.00
2023-03-28T08:41:15.175Z,24448.00
2023-03-28T08:42:15.155Z,23360.00
2023-03-28T08:43:15.342Z,20992.00
2023-03-28T08:44:15.173Z,19136.00
2023-03-28T08:45:15.125Z,18464.00
2023-03-28T08:46:15.174Z,20448.00
2023-03-28T08:47:22.700Z,22912.00
2023-03-28T08:48:15.086Z,24224.00
2023-03-28T08:49:15.165Z,24192.00
2023-03-28T08:50:15.111Z,23456.00
2023-03-28T08:51:15.066Z,23296.00
2023-03-28T08:52:15.059Z,23488.00
2023-03-28T08:53:15.023Z,22592.00
2023-03-28T08:54:15.005Z,22080.00
2023-03-28T08:55:14.994Z,21312.00
2023-03-28T08:56:14.980Z,19136.00
2023-03-28T08:57:15.021Z,20960.00
2023-03-28T08:58:15.002Z,21536.00
2023-03-28T08:59:15.014Z,21664.00
2023-03-28T09:00:14.972Z,20768.00
2023-03-28T09:01:14.967Z,22656.00
2023-03-28T09:02:15.012Z,22848.00
2023-03-28T09:03:14.987Z,23264.00
2023-03-28T09:04:15.030Z,23168.00
2023-03-28T09:05:23.061Z,23328.00
2023-03-28T09:06:14.917Z,15676.00
2023-03-28T09:07:14.888Z,15012.00
2023-03-28T09:08:16.158Z,23488.00
2023-03-28T09:09:14.839Z,15024.00
2023-03-28T09:10:14.841Z,15260.00
2023-03-28T09:11:14.832Z,23744.00
2023-03-28T09:12:14.807Z,22112.00
2023-03-28T09:13:17.637Z,20800.00
2023-03-28T09:14:14.859Z,10868.00
2023-03-28T09:15:14.795Z,10124.00
2023-03-28T09:16:14.896Z,10200.00
2023-03-28T09:17:14.796Z,19136.00
2023-03-28T09:18:14.773Z,19456.00
2023-03-28T09:19:15.575Z,20192.00
2023-03-28T09:20:14.717Z,20064.00
2023-03-28T09:21:14.723Z,21216.00
2023-03-28T09:22:15.971Z,21568.00
2023-03-28T09:23:14.728Z,17792.00
2023-03-28T09:24:14.676Z,21600.00
2023-03-28T09:25:14.708Z,12256.00
2023-03-28T09:26:14.724Z,20096.00
2023-03-28T09:27:14.697Z,23168.00
2023-03-28T09:28:14.636Z,16128.00
2023-03-28T09:29:14.878Z,18912.00
2023-03-28T09:30:14.705Z,13704.00
2023-03-28T09:31:14.638Z,12620.00
2023-03-28T09:32:14.729Z,11024.00
2023-03-28T09:33:14.726Z,9716.00
2023-03-28T09:34:14.566Z,10212.00
2023-03-28T09:35:15.725Z,10500.00
2023-03-28T09:36:14.630Z,11468.00
2023-03-28T09:37:14.554Z,12252.00
2023-03-28T09:38:15.548Z,16224.00
2023-03-28T09:39:14.545Z,15608.00
2023-03-28T09:40:14.590Z,10860.00
2023-03-28T09:41:14.515Z,10088.00
2023-03-28T09:42:14.481Z,9628.00
2023-03-28T09:43:14.532Z,8484.00
2023-03-28T09:44:14.476Z,8812.00
2023-03-28T09:45:14.440Z,12940.00
2023-03-28T09:46:15.047Z,17856.00
2023-03-28T09:47:14.440Z,10300.00
2023-03-28T09:48:15.158Z,9504.00
2023-03-28T09:49:14.456Z,8964.00
2023-03-28T09:50:14.392Z,8604.00
2023-03-28T09:51:14.398Z,8384.00
2023-03-28T09:52:14.399Z,8640.00
2023-03-28T09:53:14.371Z,8972.00
2023-03-28T09:54:14.342Z,9360.00
2023-03-28T09:55:14.409Z,9880.00
2023-03-28T09:56:14.317Z,10248.00
2023-03-28T09:57:14.481Z,10572.00
2023-03-28T09:58:14.331Z,10920.00
2023-03-28T09:59:14.280Z,11608.00
2023-03-28T10:00:14.297Z,12456.00
2023-03-28T10:01:14.320Z,13312.00
2023-03-28T10:02:14.246Z,14240.00
2023-03-28T10:03:14.275Z,16608.00
2023-03-28T10:04:14.244Z,15988.00
2023-03-28T10:05:14.212Z,23712.00
2023-03-28T10:06:14.305Z,21376.00
2023-03-28T10:07:14.202Z,20960.00
2023-03-28T10:08:14.209Z,15892.00
2023-03-28T10:09:14.170Z,15824.00
2023-03-28T10:10:14.191Z,15988.00
2023-03-28T10:11:14.194Z,16052.00
2023-03-28T10:12:14.163Z,18880.00
2023-03-28T10:13:14.191Z,18656.00
2023-03-28T10:14:14.125Z,15736.00
2023-03-28T10:15:14.130Z,15684.00
2023-03-28T10:16:14.155Z,15528.00
2023-03-28T10:17:14.085Z,21408.00
2023-03-28T10:18:14.155Z,15004.00
2023-03-28T10:19:14.060Z,15276.00
2023-03-28T10:20:14.087Z,12620.00
2023-03-28T10:21:14.042Z,11736.00
2023-03-28T10:22:14.053Z,10900.00
2023-03-28T10:23:14.040Z,10752.00
2023-03-28T10:24:14.070Z,10684.00
2023-03-28T10:25:14.008Z,9028.00
2023-03-28T10:26:14.235Z,9172.00
2023-03-28T10:27:14.038Z,10056.00
2023-03-28T10:28:14.067Z,10340.00
2023-03-28T10:29:13.968Z,10636.00
2023-03-28T10:30:13.961Z,10680.00
2023-03-28T10:31:14.019Z,11272.00
2023-03-28T10:32:13.915Z,11956.00
2023-03-28T10:33:13.950Z,13328.00
2023-03-28T10:34:13.912Z,12280.00
2023-03-28T10:35:13.875Z,11976.00
2023-03-28T10:36:13.932Z,11964.00
2023-03-28T10:37:13.915Z,11796.00
2023-03-28T10:38:13.891Z,11864.00
2023-03-28T10:39:13.884Z,11568.00
2023-03-28T10:40:13.938Z,11532.00
2023-03-28T10:41:13.820Z,11332.00
2023-03-28T10:42:13.813Z,11172.00
2023-03-28T10:43:13.900Z,10820.00
2023-03-28T10:44:13.786Z,9960.00
2023-03-28T10:45:13.770Z,9832.00
2023-03-28T10:46:13.858Z,10620.00
2023-03-28T10:47:13.748Z,10816.00
2023-03-28T10:48:21.725Z,11348.00
2023-03-28T10:49:13.803Z,11796.00
2023-03-28T10:50:13.762Z,11916.00
2023-03-28T10:51:13.701Z,13020.00
2023-03-28T10:52:13.714Z,17184.00
2023-03-28T10:53:13.732Z,14908.00
2023-03-28T10:54:13.667Z,14520.00
2023-03-28T10:55:13.689Z,15384.00
2023-03-28T10:56:13.654Z,16224.00
2023-03-28T10:57:13.833Z,16608.00
2023-03-28T10:58:13.646Z,16608.00
2023-03-28T10:59:13.648Z,12944.00
2023-03-28T11:00:13.624Z,14312.00
2023-03-28T11:01:13.612Z,15388.00
2023-03-28T11:02:13.694Z,14072.00
2023-03-28T11:03:13.727Z,13788.00
2023-03-28T11:04:14.535Z,12960.00
2023-03-28T11:05:13.566Z,10028.00
2023-03-28T11:06:13.553Z,9040.00
2023-03-28T11:07:13.545Z,8336.00
2023-03-28T11:08:13.540Z,7888.00
2023-03-28T11:09:13.533Z,7676.00
2023-03-28T11:10:13.501Z,7624.00
2023-03-28T11:11:13.526Z,7764.00
2023-03-28T11:12:23.061Z,8244.00
2023-03-28T11:13:14.475Z,8824.00
2023-03-28T11:14:13.458Z,9224.00
2023-03-28T11:15:13.498Z,9132.00
2023-03-28T11:16:13.483Z,9196.00
2023-03-28T11:17:13.427Z,9220.00
2023-03-28T11:18:13.446Z,9724.00
2023-03-28T11:19:13.490Z,10420.00
2023-03-28T11:20:13.495Z,11112.00
2023-03-28T11:21:13.383Z,11880.00
2023-03-28T11:22:13.376Z,12844.00
2023-03-28T11:23:13.371Z,14584.00
2023-03-28T11:24:13.337Z,15292.00
2023-03-28T11:25:13.345Z,16640.00
2023-03-28T11:26:13.337Z,20064.00
2023-03-28T11:27:16.309Z,19648.00
2023-03-28T11:28:13.294Z,17312.00
2023-03-28T11:29:13.296Z,14976.00
2023-03-28T11:30:13.333Z,13696.00
2023-03-28T11:31:13.427Z,13412.00
2023-03-28T11:32:13.255Z,12464.00
2023-03-28T11:33:13.272Z,11944.00
2023-03-28T11:34:13.224Z,11924.00
2023-03-28T11:35:13.214Z,12788.00
2023-03-28T11:36:13.219Z,13036.00
2023-03-28T11:37:13.202Z,12744.00
2023-03-28T11:38:13.197Z,12324.00
2023-03-28T11:39:13.181Z,14660.00
2023-03-28T11:40:13.185Z,11796.00
2023-03-28T11:41:13.208Z,11144.00
2023-03-28T11:42:13.147Z,10924.00
2023-03-28T11:43:13.129Z,10564.00
2023-03-28T11:44:13.116Z,10204.00
2023-03-28T11:45:13.106Z,10292.00
2023-03-28T11:46:13.139Z,10640.00
2023-03-28T11:47:13.100Z,11188.00
2023-03-28T11:48:13.105Z,11668.00
2023-03-28T11:49:13.080Z,11972.00
2023-03-28T11:50:13.136Z,11924.00
2023-03-28T11:51:13.040Z,11776.00
2023-03-28T11:52:13.064Z,11616.00
2023-03-28T11:53:13.016Z,12056.00
2023-03-28T11:54:13.006Z,11452.00
2023-03-28T11:55:14.924Z,11272.00
2023-03-28T11:56:13.010Z,9956.00
2023-03-28T11:57:13.051Z,9000.00
2023-03-28T11:58:12.962Z,8040.00
2023-03-28T11:59:12.964Z,7764.00
2023-03-28T12:00:23.018Z,8088.00
2023-03-28T12:01:12.983Z,9112.00
2023-03-28T12:02:12.982Z,9824.00
2023-03-28T12:03:13.069Z,10912.00
2023-03-28T12:04:12.960Z,13708.00
2023-03-28T12:05:12.885Z,16704.00
2023-03-28T12:06:12.889Z,21920.00
2023-03-28T12:07:12.904Z,21024.00
2023-03-28T12:08:12.868Z,19456.00
2023-03-28T12:09:12.842Z,18496.00
2023-03-28T12:10:12.902Z,17568.00
2023-03-28T12:11:12.839Z,13700.00
2023-03-28T12:12:12.824Z,12628.00
2023-03-28T12:13:12.826Z,12224.00
2023-03-28T12:14:12.928Z,12272.00
2023-03-28T12:15:12.820Z,12572.00
2023-03-28T12:16:12.832Z,12704.00
2023-03-28T12:17:12.797Z,12812.00
2023-03-28T12:18:12.761Z,12788.00
2023-03-28T12:19:12.748Z,12560.00
2023-03-28T12:20:12.735Z,12212.00
2023-03-28T12:21:12.772Z,11996.00
2023-03-28T12:22:12.714Z,11836.00
2023-03-28T12:23:12.745Z,11536.00